Time;durP1;ratioP1;P1;durP2;ratioP2;P2;SDS_P1;SDS_P2;PMS_P1;PMS_P2;Temp;Humidity;BMP_temperature;BMP_pressure;BME280_temperature;BME280_humidity;BME280_pressure;Samples;Min_cycle;Max_cycle;Signal;HPM_P1;HPM_P2
2024/03/29 01:44:18;;;;;;;1.70;1.30;;;17.60;47.60;;;;;;4889633;29;20447;-78
2024/03/29 01:46:47;;;;;;;1.47;1.00;;;17.50;47.60;;;;;;4921292;29;20437;-83
2024/03/29 01:49:14;;;;;;;1.20;1.10;;;17.50;47.60;;;;;;4923400;29;20461;-84
2024/03/29 01:51:41;;;;;;;3.30;1.03;;;17.50;47.60;;;;;;4921182;29;20431;-81
2024/03/29 01:54:10;;;;;;;1.97;1.10;;;17.50;47.60;;;;;;4909033;29;20534;-78
2024/03/29 01:56:37;;;;;;;1.33;1.13;;;17.50;47.60;;;;;;4898347;29;20462;-80
2024/03/29 01:59:04;;;;;;;2.00;1.23;;;17.50;47.50;;;;;;4893411;29;20959;-78
2024/03/29 02:01:31;;;;;;;1.67;1.20;;;17.50;47.50;;;;;;4896828;29;20453;-77
2024/03/29 02:03:58;;;;;;;2.47;1.10;;;17.50;47.40;;;;;;4899281;29;20445;-78
2024/03/29 02:06:25;;;;;;;1.30;1.20;;;17.50;47.60;;;;;;4899680;29;20466;-78
2024/03/29 02:08:53;;;;;;;2.03;1.23;;;17.50;47.50;;;;;;4899216;29;20442;-78
2024/03/29 02:11:21;;;;;;;4.00;1.27;;;17.50;47.50;;;;;;4908321;29;20446;-81
2024/03/29 02:13:49;;;;;;;1.50;1.30;;;17.50;47.50;;;;;;4907141;29;20478;-78
2024/03/29 02:16:16;;;;;;;2.23;1.30;;;17.50;47.50;;;;;;4911319;29;20462;-78
2024/03/29 02:18:43;;;;;;;1.70;1.30;;;17.50;47.50;;;;;;4900244;29;20454;-78
2024/03/29 02:21:10;;;;;;;1.83;1.13;;;17.40;47.40;;;;;;4898821;29;20453;-78
2024/03/29 02:23:38;;;;;;;1.73;1.20;;;17.40;47.40;;;;;;4906188;29;20442;-78
2024/03/29 02:26:07;;;;;;;2.33;1.00;;;17.40;47.50;;;;;;4895637;29;20467;-79
2024/03/29 02:28:34;;;;;;;1.37;1.27;;;17.40;47.60;;;;;;4897283;29;20445;-78
2024/03/29 02:31:01;;;;;;;1.37;1.00;;;17.40;47.50;;;;;;4898654;29;20454;-79
2024/03/29 02:33:28;;;;;;;1.40;1.30;;;17.40;47.50;;;;;;4905491;29;20478;-78
2024/03/29 02:35:55;;;;;;;3.13;1.43;;;17.40;47.40;;;;;;4897906;29;20977;-79
2024/03/29 02:38:22;;;;;;;2.10;1.10;;;17.40;47.40;;;;;;4897706;29;20454;-76
2024/03/29 02:40:49;;;;;;;1.37;1.27;;;17.40;47.40;;;;;;4897449;29;20438;-77
2024/03/29 02:43:18;;;;;;;1.43;1.23;;;17.40;47.40;;;;;;4907946;29;20462;-77
2024/03/29 02:45:45;;;;;;;2.27;1.20;;;17.40;47.40;;;;;;4895556;29;20494;-77
2024/03/29 02:48:11;;;;;;;2.50;1.00;;;17.40;47.20;;;;;;4903780;29;20452;-79
2024/03/29 02:50:38;;;;;;;1.47;1.10;;;17.40;47.40;;;;;;4894216;29;20473;-80
2024/03/29 02:53:04;;;;;;;1.83;1.10;;;17.40;47.40;;;;;;4900526;29;20820;-79
2024/03/29 02:55:31;;;;;;;3.10;1.50;;;17.40;47.50;;;;;;4899603;29;20472;-78
2024/03/29 02:57:57;;;;;;;2.20;1.20;;;17.30;47.40;;;;;;4904887;29;20451;-78
2024/03/29 03:00:25;;;;;;;1.37;0.93;;;17.30;47.40;;;;;;4906492;29;20457;-77
2024/03/29 03:02:51;;;;;;;1.63;0.93;;;17.30;47.40;;;;;;4900553;29;20442;-78
2024/03/29 03:05:18;;;;;;;1.63;1.50;;;17.40;47.40;;;;;;4899758;29;20964;-77
2024/03/29 03:13:14;;;;;;;2.93;1.40;;;17.30;47.40;;;;;;4899649;29;20477;-78
2024/03/29 03:15:43;;;;;;;2.60;1.30;;;17.30;47.30;;;;;;4915167;29;20466;-77
2024/03/29 03:18:09;;;;;;;1.90;1.27;;;17.30;47.40;;;;;;4897746;29;20454;-79
2024/03/29 03:20:37;;;;;;;2.30;1.47;;;17.30;47.40;;;;;;4919168;29;20449;-76
2024/03/29 03:23:04;;;;;;;3.50;1.13;;;17.30;47.40;;;;;;4907982;29;20439;-78
2024/03/29 03:25:31;;;;;;;1.43;0.93;;;17.30;47.30;;;;;;4906824;29;20461;-78
2024/03/29 03:27:57;;;;;;;1.73;1.20;;;17.30;47.50;;;;;;4899294;29;20450;-78
2024/03/29 03:30:24;;;;;;;1.93;1.13;;;17.30;47.50;;;;;;4901566;29;21012;-78
2024/03/29 03:32:51;;;;;;;3.33;1.43;;;17.30;47.40;;;;;;4898854;29;20488;-78
2024/03/29 03:35:18;;;;;;;2.10;1.17;;;17.30;47.40;;;;;;4898179;29;20469;-81
2024/03/29 03:37:44;;;;;;;2.63;1.20;;;17.30;47.40;;;;;;4902339;29;20450;-78
2024/03/29 03:40:12;;;;;;;1.40;1.20;;;17.30;47.20;;;;;;4899134;29;20449;-78
2024/03/29 03:42:38;;;;;;;1.27;0.90;;;17.30;47.40;;;;;;4899494;29;20450;-78
2024/03/29 03:45:05;;;;;;;1.50;1.10;;;17.30;47.30;;;;;;4894343;29;20470;-80
2024/03/29 03:47:31;;;;;;;3.30;1.10;;;17.20;47.40;;;;;;4900903;29;20450;-79
2024/03/29 03:50:00;;;;;;;4.50;1.50;;;17.30;47.40;;;;;;4905240;29;20524;-79
2024/03/29 03:52:26;;;;;;;1.83;0.93;;;17.20;47.30;;;;;;4899508;29;20477;-78
2024/03/29 03:54:53;;;;;;;1.30;1.13;;;17.20;47.40;;;;;;4900927;29;20493;-79
2024/03/29 03:57:19;;;;;;;3.90;1.50;;;17.20;47.40;;;;;;4916585;29;20446;-78
2024/03/29 03:59:47;;;;;;;2.77;1.00;;;17.30;47.30;;;;;;4901459;29;20460;-79
2024/03/29 04:02:13;;;;;;;1.13;0.77;;;17.30;47.40;;;;;;4899598;29;20450;-81
2024/03/29 04:04:40;;;;;;;4.03;1.37;;;17.20;47.30;;;;;;4904949;29;20524;-78
2024/03/29 04:07:07;;;;;;;1.30;1.20;;;17.30;47.40;;;;;;4902872;29;20445;-79
2024/03/29 04:09:34;;;;;;;2.37;1.10;;;17.30;47.30;;;;;;4893813;29;20443;-78
2024/03/29 04:12:00;;;;;;;1.83;0.90;;;17.20;47.30;;;;;;4898844;29;20450;-78
2024/03/29 04:14:27;;;;;;;3.63;1.20;;;17.20;47.20;;;;;;4907389;29;20553;-79
2024/03/29 04:16:54;;;;;;;2.47;1.13;;;17.30;47.30;;;;;;4895844;29;20506;-80
2024/03/29 04:19:21;;;;;;;2.50;1.03;;;17.20;47.10;;;;;;4898960;29;20453;-78
2024/03/29 04:21:47;;;;;;;2.40;1.10;;;17.20;47.10;;;;;;4904998;29;20450;-78
2024/03/29 04:24:15;;;;;;;2.07;1.07;;;17.20;47.00;;;;;;4898188;29;20446;-78
2024/03/29 04:26:44;;;;;;;1.77;1.10;;;17.20;47.20;;;;;;4904539;29;20450;-77
2024/03/29 04:29:11;;;;;;;1.37;0.90;;;17.20;47.20;;;;;;4897393;29;20934;-78
2024/03/29 04:31:37;;;;;;;2.67;1.17;;;17.20;47.10;;;;;;4911201;29;20449;-79
2024/03/29 04:34:04;;;;;;;1.10;0.80;;;17.20;47.10;;;;;;4906733;29;20481;-79
2024/03/29 04:36:30;;;;;;;2.43;1.10;;;17.20;47.10;;;;;;4900070;29;20469;-79
2024/03/29 04:38:57;;;;;;;1.17;1.00;;;17.20;47.00;;;;;;4900224;29;20783;-79
2024/03/29 04:41:26;;;;;;;1.67;0.87;;;17.20;47.20;;;;;;4915457;29;20446;-81
2024/03/29 04:43:52;;;;;;;1.20;1.00;;;17.20;47.10;;;;;;4899408;29;20438;-80
2024/03/29 04:46:20;;;;;;;1.33;1.10;;;17.20;47.20;;;;;;4915282;29;20836;-78
2024/03/29 04:48:47;;;;;;;1.47;0.93;;;17.20;47.10;;;;;;4898220;29;20459;-79
2024/03/29 04:51:14;;;;;;;2.90;1.17;;;17.20;47.00;;;;;;4913011;29;20449;-78
2024/03/29 04:53:41;;;;;;;1.30;1.00;;;17.20;47.10;;;;;;4914064;29;20492;-80
2024/03/29 04:56:08;;;;;;;1.80;1.17;;;17.20;47.10;;;;;;4900976;29;20462;-79
2024/03/29 04:58:36;;;;;;;1.60;1.00;;;17.20;46.90;;;;;;4907999;29;20453;-80
2024/03/29 05:01:04;;;;;;;1.53;0.90;;;17.20;47.10;;;;;;4895354;29;20463;-79
2024/03/29 05:03:31;;;;;;;1.43;0.83;;;17.20;47.00;;;;;;4910930;29;20510;-79
2024/03/29 05:05:57;;;;;;;1.77;1.00;;;17.20;46.90;;;;;;4909362;29;20468;-82
2024/03/29 05:08:24;;;;;;;1.10;1.00;;;17.20;46.90;;;;;;4922082;29;20461;-84
2024/03/29 05:10:52;;;;;;;1.53;0.87;;;17.20;47.00;;;;;;4921923;29;20202;-85
2024/03/29 05:13:19;;;;;;;1.17;0.80;;;17.20;46.90;;;;;;4904754;29;21000;-78
2024/03/29 05:15:48;;;;;;;4.50;1.17;;;17.20;46.80;;;;;;4902030;29;20457;-78
2024/03/29 05:18:15;;;;;;;1.87;1.00;;;17.20;46.90;;;;;;4898688;29;20461;-78
2024/03/29 05:20:46;;;;;;;1.80;1.00;;;17.20;46.80;;;;;;4915304;29;20441;-78
2024/03/29 05:23:14;;;;;;;2.83;0.97;;;17.20;46.90;;;;;;4900181;29;20480;-79
2024/03/29 05:25:41;;;;;;;1.50;1.10;;;17.20;46.90;;;;;;4899766;29;20470;-80
2024/03/29 05:28:09;;;;;;;1.53;0.90;;;17.20;46.80;;;;;;4899058;29;20451;-81
2024/03/29 05:30:36;;;;;;;4.77;1.07;;;17.20;46.70;;;;;;4894719;29;20942;-78
2024/03/29 05:33:06;;;;;;;1.47;1.00;;;17.20;46.70;;;;;;4897018;29;20478;-79
2024/03/29 05:35:34;;;;;;;2.30;1.00;;;17.20;46.70;;;;;;4912119;29;20465;-78
2024/03/29 05:38:01;;;;;;;2.20;1.00;;;17.20;46.60;;;;;;4902204;29;20450;-76
2024/03/29 05:40:28;;;;;;;1.37;1.03;;;17.20;46.70;;;;;;4914840;29;20442;-77
2024/03/29 05:42:55;;;;;;;3.73;1.00;;;17.20;46.50;;;;;;4899580;29;20446;-81
2024/03/29 05:45:27;;;;;;;3.23;1.03;;;17.30;46.60;;;;;;4902218;29;20469;-77
2024/03/29 05:47:54;;;;;;;1.17;0.90;;;17.30;46.60;;;;;;4898372;29;20453;-77
2024/03/29 05:50:23;;;;;;;1.17;1.07;;;17.30;46.60;;;;;;4903190;29;20453;-78
2024/03/29 05:52:50;;;;;;;1.00;0.80;;;17.30;46.60;;;;;;4907079;29;20450;-78
2024/03/29 05:55:17;;;;;;;1.20;0.80;;;17.30;46.40;;;;;;4899090;29;20555;-78
2024/03/29 05:57:45;;;;;;;0.70;0.70;;;17.30;46.40;;;;;;4898839;29;20441;-77
2024/03/29 06:00:14;;;;;;;1.67;1.00;;;17.30;46.40;;;;;;4899520;29;20446;-78
2024/03/29 06:02:42;;;;;;;3.50;1.00;;;17.30;46.40;;;;;;4906036;29;20442;-79
2024/03/29 06:05:09;;;;;;;3.37;1.10;;;17.30;46.20;;;;;;4907524;29;20497;-79
2024/03/29 06:07:38;;;;;;;1.00;1.00;;;17.30;46.30;;;;;;4901634;29;20454;-79
2024/03/29 06:10:07;;;;;;;1.20;0.70;;;17.30;46.30;;;;;;4897487;29;20446;-81
2024/03/29 06:12:34;;;;;;;3.33;1.00;;;17.30;46.30;;;;;;4913169;29;20473;-79
2024/03/29 06:17:47;;;;;;;1.10;0.80;;;17.40;46.20;;;;;;4897944;29;20457;-79
2024/03/29 06:20:14;;;;;;;1.47;0.90;;;17.40;46.20;;;;;;4895136;29;20461;-79
2024/03/29 06:22:42;;;;;;;4.00;1.20;;;17.40;46.20;;;;;;4921744;29;20445;-80
2024/03/29 06:25:09;;;;;;;2.10;1.13;;;17.40;46.20;;;;;;4915684;29;20457;-79
2024/03/29 06:27:37;;;;;;;3.63;0.90;;;17.40;46.20;;;;;;4902046;29;20446;-79
2024/03/29 06:30:04;;;;;;;2.20;1.00;;;17.40;46.20;;;;;;4900294;29;20446;-79
2024/03/29 06:32:31;;;;;;;1.73;1.00;;;17.40;46.10;;;;;;4917459;29;20449;-79
2024/03/29 06:34:59;;;;;;;1.73;0.90;;;17.40;46.00;;;;;;4901081;29;20481;-78
2024/03/29 06:37:28;;;;;;;0.80;0.80;;;17.40;46.00;;;;;;4922753;29;20458;-79
2024/03/29 06:39:56;;;;;;;1.63;1.00;;;17.40;46.10;;;;;;4905594;29;20450;-78
2024/03/29 06:42:23;;;;;;;1.03;0.83;;;17.40;46.20;;;;;;4899314;29;20445;-78
2024/03/29 06:44:51;;;;;;;1.50;1.00;;;17.40;46.20;;;;;;4907569;29;20462;-78
2024/03/29 06:47:18;;;;;;;1.63;1.00;;;17.50;46.40;;;;;;4898738;29;20447;-78
2024/03/29 06:49:46;;;;;;;0.70;0.70;;;17.50;46.30;;;;;;4899466;29;20442;-78
2024/03/29 06:52:13;;;;;;;1.63;1.13;;;17.50;46.40;;;;;;4898581;29;20453;-78
2024/03/29 06:54:41;;;;;;;1.47;1.00;;;17.50;46.40;;;;;;4899931;29;20488;-79
2024/03/29 06:57:14;;;;;;;2.20;1.00;;;17.60;46.40;;;;;;4901427;29;20441;-80
2024/03/29 06:59:41;;;;;;;1.77;0.80;;;17.50;46.60;;;;;;4901987;29;20457;-81
2024/03/29 07:02:09;;;;;;;2.00;0.93;;;17.60;46.80;;;;;;4901822;29;20452;-79
2024/03/29 07:04:37;;;;;;;1.57;0.83;;;17.60;46.80;;;;;;4918724;29;20475;-80
2024/03/29 07:07:04;;;;;;;3.00;0.80;;;17.50;46.90;;;;;;4905056;29;20450;-80
2024/03/29 07:09:31;;;;;;;1.33;0.73;;;17.50;47.00;;;;;;4902406;29;20457;-79
2024/03/29 07:11:58;;;;;;;3.40;1.23;;;17.50;47.10;;;;;;4901419;29;20441;-80
2024/03/29 07:14:28;;;;;;;1.27;0.90;;;17.50;47.40;;;;;;4918380;29;20465;-78
2024/03/29 07:16:57;;;;;;;2.80;0.97;;;17.60;47.70;;;;;;4899575;29;20945;-79
2024/03/29 07:19:24;;;;;;;1.00;0.90;;;17.60;47.80;;;;;;4902684;29;20469;-78
2024/03/29 07:21:52;;;;;;;0.97;0.90;;;17.60;47.70;;;;;;4896481;29;20477;-80
2024/03/29 07:24:20;;;;;;;1.13;1.03;;;17.70;48.00;;;;;;4901806;29;20449;-79
2024/03/29 07:26:47;;;;;;;1.37;0.80;;;17.80;47.90;;;;;;4901526;29;20470;-82
2024/03/29 07:29:14;;;;;;;1.63;0.90;;;17.70;47.90;;;;;;4905857;29;20445;-79
2024/03/29 07:31:42;;;;;;;2.30;0.90;;;17.80;48.00;;;;;;4903294;29;20445;-79
2024/03/29 07:34:10;;;;;;;1.57;1.00;;;17.80;48.10;;;;;;4916763;29;20474;-80
2024/03/29 07:36:39;;;;;;;1.10;0.80;;;17.80;48.30;;;;;;4897625;29;20458;-82
2024/03/29 07:39:06;;;;;;;2.20;0.80;;;17.80;48.30;;;;;;4916307;29;20940;-80
2024/03/29 07:41:33;;;;;;;2.07;0.90;;;17.80;48.60;;;;;;4901718;29;20446;-80
2024/03/29 07:44:02;;;;;;;1.43;0.70;;;17.90;48.40;;;;;;4901229;29;20449;-80
2024/03/29 07:46:30;;;;;;;1.37;1.00;;;17.90;48.60;;;;;;4899784;29;20474;-82
2024/03/29 07:48:59;;;;;;;1.73;0.90;;;17.90;48.70;;;;;;4919935;29;20445;-81
2024/03/29 07:51:26;;;;;;;1.67;1.00;;;17.90;48.70;;;;;;4906824;29;20449;-80
2024/03/29 07:53:53;;;;;;;2.70;0.83;;;17.90;48.80;;;;;;4911235;29;20446;-79
2024/03/29 07:56:21;;;;;;;2.33;0.80;;;17.90;48.70;;;;;;4898967;29;20469;-78
2024/03/29 07:58:51;;;;;;;1.10;0.77;;;17.90;48.80;;;;;;4908307;29;20509;-78
2024/03/29 08:01:19;;;;;;;1.67;0.77;;;17.90;48.90;;;;;;4919501;29;20453;-78
2024/03/29 08:03:47;;;;;;;3.33;0.93;;;17.90;48.90;;;;;;4922754;29;20472;-79
2024/03/29 08:06:17;;;;;;;3.70;1.07;;;17.90;48.80;;;;;;4915116;29;20961;-78
2024/03/29 08:08:44;;;;;;;0.97;0.80;;;17.90;49.10;;;;;;4899239;29;20453;-78
2024/03/29 08:11:12;;;;;;;2.33;1.13;;;18.00;49.20;;;;;;4901575;29;20483;-79
2024/03/29 08:13:39;;;;;;;1.27;0.70;;;18.00;49.20;;;;;;4891349;29;20462;-80
2024/03/29 08:16:07;;;;;;;1.10;0.90;;;18.00;49.30;;;;;;4903051;29;20482;-78
2024/03/29 08:18:34;;;;;;;0.70;0.70;;;18.00;49.40;;;;;;4896301;29;20434;-79
2024/03/29 08:21:01;;;;;;;2.10;0.90;;;18.00;49.30;;;;;;4897796;29;20480;-78
2024/03/29 08:23:30;;;;;;;0.77;0.77;;;18.10;49.40;;;;;;4928364;29;20407;-85
2024/03/29 08:25:58;;;;;;;1.43;1.00;;;18.00;49.50;;;;;;4921744;29;20450;-85
2024/03/29 08:28:25;;;;;;;1.43;0.80;;;18.10;49.30;;;;;;4919385;29;20446;-81
2024/03/29 08:31:05;;;;;;;1.17;0.90;;;18.10;49.60;;;;;;4919072;29;20454;-80
2024/03/29 08:33:32;;;;;;;1.27;1.00;;;18.20;49.50;;;;;;4904009;29;20445;-77
2024/03/29 08:36:00;;;;;;;1.13;1.03;;;18.20;49.40;;;;;;4927952;29;20489;-78
2024/03/29 08:38:29;;;;;;;0.80;0.80;;;18.20;49.60;;;;;;4899703;29;20442;-77
2024/03/29 08:40:56;;;;;;;0.90;0.80;;;18.20;49.60;;;;;;4900213;29;20446;-79
2024/03/29 08:43:23;;;;;;;1.00;0.77;;;18.30;49.80;;;;;;4900521;29;20453;-78
2024/03/29 08:45:50;;;;;;;2.10;0.80;;;18.30;50.00;;;;;;4899022;29;20477;-77
2024/03/29 08:48:18;;;;;;;1.80;0.90;;;18.30;50.00;;;;;;4919615;29;20445;-78
2024/03/29 08:50:46;;;;;;;1.00;0.90;;;18.40;49.90;;;;;;4898991;29;20480;-77
2024/03/29 08:53:13;;;;;;;0.93;0.80;;;18.40;49.80;;;;;;4906097;29;20956;-77
2024/03/29 08:55:44;;;;;;;0.80;0.80;;;18.40;49.80;;;;;;4906434;29;20485;-78
2024/03/29 08:58:11;;;;;;;3.33;1.00;;;18.50;49.80;;;;;;4894193;29;20458;-78
2024/03/29 09:00:39;;;;;;;1.00;0.90;;;18.50;49.90;;;;;;4898714;29;20509;-78
2024/03/29 09:03:07;;;;;;;1.07;0.70;;;18.50;49.80;;;;;;4898332;29;20453;-80
2024/03/29 09:05:34;;;;;;;0.70;0.70;;;18.50;49.90;;;;;;4898693;29;20469;-78
2024/03/29 09:08:02;;;;;;;1.10;0.83;;;18.50;49.90;;;;;;4920200;29;20462;-79
2024/03/29 09:10:29;;;;;;;0.97;0.77;;;18.40;50.10;;;;;;4898835;29;20513;-76
2024/03/29 09:12:59;;;;;;;0.90;0.80;;;18.40;50.00;;;;;;4907326;29;20449;-78
2024/03/29 09:15:26;;;;;;;0.90;0.90;;;18.50;50.30;;;;;;4912293;29;20490;-81
2024/03/29 09:17:55;;;;;;;0.90;0.90;;;18.50;50.20;;;;;;4912568;29;20446;-78
2024/03/29 09:20:22;;;;;;;1.37;0.80;;;18.50;50.30;;;;;;4915772;29;20446;-78
2024/03/29 09:22:52;;;;;;;0.80;0.80;;;18.50;50.40;;;;;;4919272;29;20451;-78
2024/03/29 09:25:19;;;;;;;1.00;0.87;;;18.50;50.30;;;;;;4914019;29;20503;-78
2024/03/29 09:27:48;;;;;;;2.20;1.00;;;18.60;50.50;;;;;;4904592;29;20442;-77
2024/03/29 09:30:18;;;;;;;0.93;0.83;;;18.60;50.50;;;;;;4897760;29;20454;-77
2024/03/29 09:32:47;;;;;;;1.33;0.70;;;18.80;50.60;;;;;;4914270;29;20450;-79
2024/03/29 09:35:15;;;;;;;0.90;0.80;;;18.90;50.60;;;;;;4893866;29;20508;-77
2024/03/29 09:37:42;;;;;;;1.37;0.93;;;19.10;50.50;;;;;;4923453;29;20441;-78
2024/03/29 09:40:12;;;;;;;2.60;0.93;;;19.20;50.30;;;;;;4892109;29;20461;-78
2024/03/29 09:42:40;;;;;;;1.90;0.70;;;19.30;50.00;;;;;;4899463;29;20450;-76
2024/03/29 09:45:08;;;;;;;1.13;0.90;;;19.40;49.80;;;;;;4898261;29;20469;-76
2024/03/29 09:47:39;;;;;;;1.73;0.90;;;19.40;49.80;;;;;;4906062;29;20956;-77
2024/03/29 09:50:07;;;;;;;1.30;0.90;;;19.30;49.70;;;;;;4909908;29;20592;-78
2024/03/29 09:52:36;;;;;;;0.93;0.93;;;19.30;49.90;;;;;;4897679;29;20454;-78
2024/03/29 09:55:07;;;;;;;1.33;0.90;;;19.20;50.00;;;;;;4895519;29;20478;-75
2024/03/29 09:57:34;;;;;;;2.87;0.90;;;19.30;50.20;;;;;;4896373;29;20454;-75
2024/03/29 10:00:04;;;;;;;1.10;0.90;;;19.40;50.40;;;;;;4894949;29;20442;-77
2024/03/29 10:02:33;;;;;;;3.80;0.80;;;19.40;50.20;;;;;;4894807;29;20450;-76
2024/03/29 10:05:06;;;;;;;1.70;0.87;;;19.40;50.00;;;;;;4898132;29;20469;-76
2024/03/29 10:07:35;;;;;;;1.53;0.93;;;19.40;50.20;;;;;;4895972;29;20537;-77
2024/03/29 10:10:04;;;;;;;1.70;0.73;;;19.30;50.20;;;;;;4902340;29;20450;-77
2024/03/29 10:12:32;;;;;;;1.23;0.90;;;19.40;50.30;;;;;;4901689;29;20457;-76
2024/03/29 10:15:05;;;;;;;2.87;0.90;;;19.40;50.30;;;;;;4904909;29;20469;-78
2024/03/29 10:17:48;;;;;;;1.47;1.00;;;19.40;50.40;;;;;;4905252;29;20445;-81
2024/03/29 10:20:18;;;;;;;2.00;1.90;;;19.50;50.80;;;;;;4915955;29;20450;-80
2024/03/29 10:22:46;;;;;;;7.50;2.13;;;17.50;50.50;;;;;;4910505;29;20446;-80
2024/03/29 10:25:13;;;;;;;3.30;2.30;;;16.40;53.20;;;;;;4898027;29;20467;-79
2024/03/29 10:27:41;;;;;;;7.80;5.30;;;15.70;54.70;;;;;;4915777;29;20458;-80
2024/03/29 10:30:09;;;;;;;3.80;2.13;;;15.60;56.20;;;;;;4897899;29;20447;-80
2024/03/29 10:32:39;;;;;;;2.60;2.37;;;15.70;56.10;;;;;;4907715;29;20453;-81
2024/03/29 10:35:07;;;;;;;3.50;2.00;;;15.70;56.80;;;;;;4918420;29;20466;-81
2024/03/29 10:37:38;;;;;;;3.37;2.10;;;16.00;56.70;;;;;;4904930;29;20445;-81
2024/03/29 10:40:08;;;;;;;2.40;2.07;;;16.10;55.00;;;;;;4896242;29;21204;-80
2024/03/29 10:42:36;;;;;;;5.10;2.67;;;15.40;56.00;;;;;;4904364;29;20454;-80
2024/03/29 10:45:03;;;;;;;2.40;2.20;;;15.20;57.30;;;;;;4912323;29;20480;-80
2024/03/29 10:47:30;;;;;;;1.73;1.60;;;15.20;58.40;;;;;;4903535;29;20446;-79
2024/03/29 10:49:57;;;;;;;1.80;1.70;;;15.40;56.40;;;;;;4910333;29;20480;-81
2024/03/29 10:52:25;;;;;;;2.00;1.83;;;15.60;57.50;;;;;;4915387;29;20457;-79
2024/03/29 10:54:54;;;;;;;4.93;2.23;;;15.50;55.90;;;;;;4901336;29;20473;-80
2024/03/29 10:57:24;;;;;;;2.73;2.47;;;15.10;58.10;;;;;;4912349;29;20861;-76
2024/03/29 10:59:56;;;;;;;2.17;2.07;;;15.20;58.50;;;;;;4903436;29;20453;-77
2024/03/29 11:02:34;;;;;;;2.30;2.10;;;16.30;59.40;;;;;;4902936;29;20446;-77
2024/03/29 11:05:05;;;;;;;2.40;2.20;;;17.30;56.80;;;;;;4900921;29;20469;-77
2024/03/29 11:07:33;;;;;;;6.23;2.50;;;18.10;55.00;;;;;;4893446;29;20446;-78
2024/03/29 11:10:02;;;;;;;2.33;1.77;;;18.70;53.40;;;;;;4894861;29;20442;-76
2024/03/29 11:12:30;;;;;;;2.53;1.50;;;19.20;52.30;;;;;;4898831;29;20450;-77
2024/03/29 11:15:00;;;;;;;2.03;1.53;;;19.50;51.50;;;;;;4896975;29;20454;-76
2024/03/29 11:17:28;;;;;;;1.83;1.50;;;19.90;51.20;;;;;;4897815;29;20894;-77
2024/03/29 11:19:55;;;;;;;1.73;1.40;;;20.30;50.80;;;;;;4898472;29;20442;-77
2024/03/29 11:22:22;;;;;;;1.83;1.53;;;21.30;50.60;;;;;;4902541;29;20453;-77
2024/03/29 11:24:51;;;;;;;2.27;1.87;;;22.00;51.30;;;;;;4910178;29;21044;-76
2024/03/29 11:27:23;;;;;;;4.33;1.53;;;22.90;47.10;;;;;;4909735;29;20449;-78
2024/03/29 11:29:50;;;;;;;1.40;1.30;;;23.40;48.00;;;;;;4894832;29;20420;-78
2024/03/29 11:32:33;;;;;;;2.07;1.70;;;24.50;48.70;;;;;;4902407;29;20511;-77
2024/03/29 11:35:00;;;;;;;1.87;1.50;;;24.20;45.00;;;;;;4897433;29;20525;-77
2024/03/29 11:37:30;;;;;;;2.80;1.43;;;23.90;45.30;;;;;;4898290;29;20478;-76
2024/03/29 11:39:59;;;;;;;1.60;1.50;;;23.60;45.40;;;;;;4899761;29;20443;-77
2024/03/29 11:42:45;;;;;;;1.43;1.33;;;24.50;46.00;;;;;;4898628;29;20450;-77
2024/03/29 11:45:12;;;;;;;3.47;2.00;;;24.20;45.30;;;;;;4899049;29;20473;-77
2024/03/29 11:47:40;;;;;;;1.47;1.37;;;25.70;47.80;;;;;;4918812;29;20448;-81
2024/03/29 11:50:09;;;;;;;2.50;1.30;;;26.00;43.70;;;;;;4916545;29;20457;-80
2024/03/29 11:52:36;;;;;;;1.77;1.43;;;26.40;45.40;;;;;;4912563;29;20424;-77
2024/03/29 11:55:04;;;;;;;2.03;1.30;;;28.20;43.30;;;;;;4899892;29;20436;-77
2024/03/29 11:57:31;;;;;;;1.93;1.30;;;29.90;40.40;;;;;;4912670;29;20481;-79
2024/03/29 12:00:00;;;;;;;1.23;1.10;;;30.10;39.10;;;;;;4898147;29;20442;-77
2024/03/29 12:02:27;;;;;;;1.23;1.17;;;29.90;38.40;;;;;;4902693;29;20464;-77
2024/03/29 12:04:54;;;;;;;1.33;1.23;;;29.30;37.90;;;;;;4895488;29;20533;-77
2024/03/29 12:07:21;;;;;;;4.90;1.53;;;29.00;40.20;;;;;;4910253;29;20416;-77
2024/03/29 12:09:48;;;;;;;1.07;1.07;;;28.30;38.90;;;;;;4915697;29;20453;-77
2024/03/29 12:12:17;;;;;;;3.00;1.40;;;27.60;40.20;;;;;;4898076;29;20421;-77
2024/03/29 12:14:44;;;;;;;1.30;1.20;;;27.60;43.20;;;;;;4913828;29;20445;-77
2024/03/29 12:17:13;;;;;;;1.47;1.33;;;27.40;40.70;;;;;;4891855;29;20480;-77
2024/03/29 12:19:42;;;;;;;1.57;1.47;;;27.10;41.70;;;;;;4903326;29;20438;-77
2024/03/29 12:22:10;;;;;;;1.27;1.20;;;28.00;41.70;;;;;;4902718;29;20457;-77
2024/03/29 12:24:37;;;;;;;1.73;1.37;;;27.40;40.60;;;;;;4899061;29;20449;-77
2024/03/29 12:27:05;;;;;;;3.37;1.10;;;26.80;41.50;;;;;;4908708;29;20454;-76
2024/03/29 12:29:32;;;;;;;1.33;0.90;;;26.60;43.10;;;;;;4912920;29;20454;-77
2024/03/29 12:32:00;;;;;;;2.80;1.20;;;27.00;41.70;;;;;;4898501;29;20424;-77
2024/03/29 12:34:29;;;;;;;2.20;1.13;;;27.80;44.80;;;;;;4894946;29;20433;-76
2024/03/29 12:36:58;;;;;;;1.40;1.30;;;28.90;40.30;;;;;;4894573;29;20486;-77
2024/03/29 12:39:26;;;;;;;2.23;1.30;;;29.70;39.10;;;;;;4896701;29;20450;-77
2024/03/29 12:41:59;;;;;;;1.30;1.20;;;29.00;38.70;;;;;;4922112;29;20902;-76
2024/03/29 12:44:26;;;;;;;1.20;1.10;;;28.10;39.50;;;;;;4902793;29;20417;-76
2024/03/29 12:46:53;;;;;;;1.53;1.40;;;27.30;40.70;;;;;;4896043;29;20433;-77
2024/03/29 12:49:20;;;;;;;1.20;1.10;;;26.60;41.80;;;;;;4901311;29;20454;-77
2024/03/29 12:51:49;;;;;;;1.40;1.30;;;26.10;42.70;;;;;;4897568;29;20467;-76
2024/03/29 12:54:18;;;;;;;3.00;1.50;;;25.80;43.60;;;;;;4909309;29;20419;-78
2024/03/29 12:56:45;;;;;;;1.83;1.33;;;25.50;44.20;;;;;;4896048;29;20449;-76
2024/03/29 12:59:14;;;;;;;3.10;1.17;;;26.00;44.10;;;;;;4894916;29;20803;-78
2024/03/29 13:01:42;;;;;;;1.77;1.20;;;25.60;43.90;;;;;;4904049;29;20928;-78
2024/03/29 13:04:12;;;;;;;1.10;1.00;;;25.30;44.50;;;;;;4908661;29;20417;-79
2024/03/29 13:06:39;;;;;;;1.43;1.10;;;25.00;44.90;;;;;;4897864;29;20466;-77
2024/03/29 13:09:08;;;;;;;2.10;1.40;;;24.60;45.30;;;;;;4898460;29;20454;-77
2024/03/29 13:11:35;;;;;;;1.30;1.20;;;24.40;45.60;;;;;;4896507;29;20435;-79
2024/03/29 13:14:02;;;;;;;1.00;1.00;;;24.20;46.00;;;;;;4896212;29;20446;-77
2024/03/29 13:16:29;;;;;;;2.43;1.20;;;23.90;46.30;;;;;;4896326;29;20489;-78
2024/03/29 13:18:56;;;;;;;1.47;1.37;;;23.80;46.60;;;;;;4896553;29;20445;-76
2024/03/29 13:21:23;;;;;;;1.27;1.07;;;23.60;46.90;;;;;;4896553;29;20420;-77
2024/03/29 13:23:50;;;;;;;1.40;1.30;;;23.50;47.10;;;;;;4909513;29;20463;-76
2024/03/29 13:26:19;;;;;;;3.23;1.37;;;23.40;47.20;;;;;;4896517;29;20458;-77
2024/03/29 13:28:46;;;;;;;1.60;1.17;;;23.40;47.40;;;;;;4896525;29;20449;-77
2024/03/29 13:31:13;;;;;;;1.93;1.27;;;23.40;47.70;;;;;;4896501;29;20424;-76
2024/03/29 13:33:41;;;;;;;3.20;1.50;;;23.50;47.20;;;;;;4896641;29;20424;-77
2024/03/29 13:36:09;;;;;;;1.20;1.10;;;23.40;47.20;;;;;;4894798;29;20470;-76
2024/03/29 13:38:37;;;;;;;7.03;1.53;;;23.30;47.20;;;;;;4893900;29;20441;-77
2024/03/29 13:41:08;;;;;;;1.43;1.40;;;23.20;47.30;;;;;;4889422;29;20458;-78
2024/03/29 13:43:42;;;;;;;2.10;1.40;;;23.10;47.30;;;;;;4896742;29;20453;-75
2024/03/29 13:46:09;;;;;;;1.53;1.43;;;23.10;47.30;;;;;;4906596;29;20485;-77
2024/03/29 13:48:36;;;;;;;1.43;1.20;;;23.00;47.40;;;;;;4901221;29;20449;-79
2024/03/29 13:51:04;;;;;;;2.03;1.40;;;23.00;47.60;;;;;;4894530;29;20459;-77
2024/03/29 13:53:34;;;;;;;1.97;1.13;;;23.00;47.70;;;;;;4896578;29;20425;-78
2024/03/29 13:56:03;;;;;;;1.80;1.43;;;23.10;47.60;;;;;;4893314;29;20462;-77
2024/03/29 13:58:31;;;;;;;1.80;1.70;;;23.10;47.50;;;;;;4898699;29;20456;-78
2024/03/29 14:01:00;;;;;;;1.90;1.50;;;23.10;47.60;;;;;;4896056;29;20450;-78
2024/03/29 14:03:28;;;;;;;1.73;1.30;;;23.10;47.60;;;;;;4892888;29;20452;-79
2024/03/29 14:05:55;;;;;;;1.60;1.50;;;23.00;47.60;;;;;;4892704;29;20473;-78
2024/03/29 14:08:22;;;;;;;2.60;1.40;;;23.00;47.50;;;;;;4898335;29;20446;-77
2024/03/29 14:10:51;;;;;;;1.80;1.70;;;22.90;47.60;;;;;;4902567;29;20454;-76
2024/03/29 14:13:19;;;;;;;1.57;1.47;;;23.10;48.00;;;;;;4898599;29;20461;-77
2024/03/29 14:15:46;;;;;;;1.27;1.27;;;23.20;47.60;;;;;;4893619;29;20961;-76
2024/03/29 14:18:15;;;;;;;1.97;1.83;;;23.20;47.50;;;;;;4896337;29;20477;-76
2024/03/29 14:20:42;;;;;;;1.60;1.50;;;23.20;47.40;;;;;;4903174;29;20455;-77
2024/03/29 14:23:12;;;;;;;1.97;1.60;;;23.30;47.60;;;;;;4896072;29;20449;-78
2024/03/29 14:25:39;;;;;;;1.90;1.80;;;23.40;47.40;;;;;;4898126;29;20473;-76
2024/03/29 14:28:09;;;;;;;4.67;1.60;;;23.40;47.30;;;;;;4895950;29;20457;-77
2024/03/29 14:30:36;;;;;;;1.90;1.80;;;23.50;47.20;;;;;;4898710;29;20450;-77
2024/03/29 14:33:06;;;;;;;3.33;1.80;;;23.60;47.40;;;;;;4913903;29;20454;-80
2024/03/29 14:35:35;;;;;;;1.30;1.30;;;24.30;49.70;;;;;;4899847;29;20448;-78
2024/03/29 14:38:02;;;;;;;1.93;1.50;;;25.20;45.20;;;;;;4892052;29;20456;-77
2024/03/29 14:40:30;;;;;;;1.40;1.27;;;25.60;44.80;;;;;;4895677;29;20417;-78
2024/03/29 14:42:57;;;;;;;2.20;1.33;;;26.00;45.30;;;;;;4905924;29;20420;-77